Terminal Aerodrome Forecast
Issued by NWS

Home | Current Version | Previous Version | Graphics & Text | Print | Product List | Glossary On
Versions: 1 2 3 4 5 6 7 8 9 10 11 12 13 14
613
FTUS43 KMPX 241433 AAA
TAFRWF
TAF AMD
KRWF 241433Z 2415/2512 01013G22KT P6SM OVC080
     FM242000 34016G28KT P6SM OVC150
     FM250700 32012G18KT P6SM SCT200=

USA.gov is the U.S. government's official web portal to all federal, state and local government web resources and services.